Time;durP1;ratioP1;P1;durP2;ratioP2;P2;SDS_P1;SDS_P2;PMS_P1;PMS_P2;Temp;Humidity;BMP_temperature;BMP_pressure;BME280_temperature;BME280_humidity;BME280_pressure;Samples;Min_cycle;Max_cycle;Signal;HPM_P1;HPM_P2
2022/07/15 00:01:35;;;;;;;2.22;0.50;;;18.20;47.30;;;;;;4950197;28;20620;-72
2022/07/15 00:04:01;;;;;;;4.32;0.50;;;18.10;47.40;;;;;;4942354;28;20039;-70
2022/07/15 00:06:27;;;;;;;2.13;0.43;;;18.00;47.50;;;;;;4961858;28;20039;-71
2022/07/15 00:08:52;;;;;;;0.50;0.40;;;18.00;47.60;;;;;;4935965;28;20042;-72
2022/07/15 00:11:18;;;;;;;0.90;0.57;;;17.90;47.60;;;;;;4946869;28;20039;-72
2022/07/15 00:13:43;;;;;;;1.02;0.60;;;17.80;47.70;;;;;;4922419;28;20126;-72
2022/07/15 00:16:09;;;;;;;1.23;0.60;;;17.80;47.90;;;;;;4956068;28;20082;-72
2022/07/15 00:18:34;;;;;;;1.25;0.63;;;17.70;48.00;;;;;;4933256;28;20079;-70
2022/07/15 00:21:00;;;;;;;0.93;0.57;;;17.70;48.10;;;;;;4945698;28;20092;-71
2022/07/15 00:23:25;;;;;;;1.35;0.65;;;17.60;48.20;;;;;;4932088;28;20035;-71
2022/07/15 00:25:51;;;;;;;2.13;0.63;;;17.60;48.30;;;;;;4943902;28;20035;-72
2022/07/15 00:28:16;;;;;;;1.63;0.55;;;17.50;48.50;;;;;;4966247;28;20043;-71
2022/07/15 00:30:42;;;;;;;2.47;0.70;;;17.50;48.60;;;;;;4952347;28;20047;-71
2022/07/15 00:33:08;;;;;;;2.42;0.80;;;17.40;48.60;;;;;;4955341;28;20129;-71
2022/07/15 00:35:34;;;;;;;0.65;0.40;;;17.30;48.80;;;;;;4951043;28;20040;-71
2022/07/15 00:38:01;;;;;;;2.08;0.50;;;17.30;48.90;;;;;;4922639;28;20031;-71
2022/07/15 00:40:26;;;;;;;1.33;0.50;;;17.30;49.00;;;;;;4941307;28;20038;-72
2022/07/15 00:42:52;;;;;;;2.80;0.50;;;17.20;49.10;;;;;;4971551;28;20041;-72
2022/07/15 00:45:19;;;;;;;0.77;0.68;;;17.10;49.20;;;;;;4947223;28;20062;-72
2022/07/15 00:47:47;;;;;;;1.50;0.70;;;17.10;49.30;;;;;;4945523;28;20049;-71
2022/07/15 00:50:13;;;;;;;0.88;0.70;;;17.00;49.50;;;;;;4952830;28;20737;-72
2022/07/15 00:52:40;;;;;;;1.83;0.60;;;17.00;49.60;;;;;;4960318;28;20391;-72
2022/07/15 00:55:06;;;;;;;5.43;0.70;;;16.90;49.50;;;;;;4937512;28;20035;-72
2022/07/15 00:57:32;;;;;;;2.25;0.60;;;16.90;49.60;;;;;;4935459;28;20748;-72
2022/07/15 00:59:59;;;;;;;1.55;0.50;;;16.80;49.90;;;;;;4932277;28;20130;-71
2022/07/15 01:02:24;;;;;;;1.10;0.40;;;16.80;50.00;;;;;;4934489;28;20125;-72
2022/07/15 01:04:50;;;;;;;0.80;0.50;;;16.70;50.10;;;;;;4952478;28;20121;-73
2022/07/15 01:07:16;;;;;;;0.70;0.40;;;16.60;50.20;;;;;;4929976;28;20078;-73
2022/07/15 01:09:42;;;;;;;2.75;0.68;;;16.60;50.30;;;;;;4965411;28;20045;-72
2022/07/15 01:12:07;;;;;;;2.10;0.70;;;16.50;50.40;;;;;;4964887;28;20039;-71
2022/07/15 01:14:33;;;;;;;1.98;0.65;;;16.50;50.50;;;;;;4970662;28;20039;-72
2022/07/15 01:16:58;;;;;;;1.42;0.60;;;16.50;50.70;;;;;;4952921;28;20458;-71
2022/07/15 01:19:24;;;;;;;1.50;0.55;;;16.40;50.80;;;;;;4954144;28;20635;-71
2022/07/15 01:21:49;;;;;;;1.63;0.60;;;16.40;50.90;;;;;;4940258;28;20046;-73
2022/07/15 01:24:15;;;;;;;2.13;0.77;;;16.30;51.00;;;;;;4980134;28;22736;-72
2022/07/15 01:26:40;;;;;;;0.77;0.50;;;16.20;51.10;;;;;;4949360;28;22215;-72
2022/07/15 01:29:06;;;;;;;0.75;0.47;;;16.20;51.20;;;;;;4968899;28;20551;-71
2022/07/15 01:31:31;;;;;;;2.45;0.60;;;16.10;51.30;;;;;;4927750;28;20440;-71
2022/07/15 01:33:57;;;;;;;2.70;0.65;;;16.10;51.50;;;;;;4964776;28;20532;-71
2022/07/15 01:36:23;;;;;;;1.35;0.40;;;16.10;52.20;;;;;;4946121;28;20114;-71
2022/07/15 01:38:48;;;;;;;0.65;0.47;;;16.00;51.60;;;;;;4934043;28;20031;-70
2022/07/15 01:41:14;;;;;;;1.30;0.43;;;16.00;51.70;;;;;;4942471;28;20369;-73
2022/07/15 01:43:39;;;;;;;1.20;0.50;;;15.90;51.80;;;;;;4968815;28;20035;-71
2022/07/15 01:46:05;;;;;;;3.28;0.70;;;15.90;51.80;;;;;;4938277;28;20129;-72
2022/07/15 01:51:15;;;;;;;1.58;0.70;;;15.80;52.10;;;;;;4956924;28;20116;-71
2022/07/15 01:53:40;;;;;;;1.83;0.88;;;15.80;52.20;;;;;;4950546;28;21464;-71
2022/07/15 01:56:06;;;;;;;1.38;0.52;;;15.70;52.30;;;;;;4963318;28;20072;-71
2022/07/15 01:58:32;;;;;;;1.02;0.60;;;15.70;52.40;;;;;;4984733;28;20034;-71
2022/07/15 02:00:57;;;;;;;3.65;0.70;;;15.60;52.50;;;;;;4956889;28;20104;-72
2022/07/15 02:03:23;;;;;;;1.70;0.57;;;15.60;52.60;;;;;;4934584;28;20051;-72
2022/07/15 02:05:48;;;;;;;2.63;0.88;;;15.50;52.70;;;;;;4937208;28;20034;-72
2022/07/15 02:08:14;;;;;;;2.28;0.65;;;15.50;53.00;;;;;;4943342;28;20094;-72
2022/07/15 02:10:40;;;;;;;2.90;0.60;;;15.40;52.90;;;;;;4967479;28;20032;-72
2022/07/15 02:13:09;;;;;;;1.05;0.80;;;15.40;53.00;;;;;;4953179;28;20608;-71
2022/07/15 02:15:35;;;;;;;1.73;0.70;;;15.30;53.10;;;;;;4932823;28;20085;-73
2022/07/15 02:18:01;;;;;;;1.83;0.60;;;15.30;53.20;;;;;;4948855;28;20055;-71
2022/07/15 02:20:27;;;;;;;1.38;0.60;;;15.20;53.30;;;;;;4932960;28;21012;-72
2022/07/15 02:22:53;;;;;;;0.77;0.60;;;15.20;53.40;;;;;;4955427;28;20715;-73
2022/07/15 02:25:18;;;;;;;3.42;0.70;;;15.20;53.70;;;;;;4966393;28;20078;-72
2022/07/15 02:27:44;;;;;;;2.17;0.60;;;15.10;53.60;;;;;;4973064;28;20114;-73
2022/07/15 02:30:11;;;;;;;2.08;0.70;;;15.10;53.80;;;;;;4939918;28;20026;-71
2022/07/15 02:32:37;;;;;;;2.88;0.70;;;15.10;53.90;;;;;;4952556;28;20052;-72
2022/07/15 02:35:03;;;;;;;1.20;0.70;;;15.00;54.00;;;;;;4945734;28;20532;-71
2022/07/15 02:37:28;;;;;;;2.42;1.00;;;14.90;54.10;;;;;;4968229;28;20054;-71
2022/07/15 02:39:54;;;;;;;1.75;0.70;;;14.90;54.10;;;;;;4941169;28;20050;-71
2022/07/15 02:42:19;;;;;;;1.98;0.85;;;14.90;54.30;;;;;;4973335;28;20044;-72
2022/07/15 02:44:45;;;;;;;4.03;0.80;;;14.90;54.50;;;;;;4970164;28;20093;-72
2022/07/15 02:47:10;;;;;;;0.98;0.88;;;14.80;54.60;;;;;;4974414;28;20030;-72
2022/07/15 02:49:36;;;;;;;2.47;0.80;;;14.80;54.60;;;;;;4939378;28;20043;-72
2022/07/15 02:52:01;;;;;;;2.55;1.00;;;14.70;54.70;;;;;;4951810;28;20040;-71
2022/07/15 02:54:27;;;;;;;2.95;0.80;;;14.70;54.80;;;;;;4965159;28;20043;-72
2022/07/15 02:56:52;;;;;;;2.38;0.70;;;14.60;54.80;;;;;;4922967;28;20117;-71
2022/07/15 02:59:18;;;;;;;1.58;0.60;;;14.60;54.90;;;;;;4942044;28;20032;-72
2022/07/15 03:01:43;;;;;;;1.52;0.70;;;14.60;55.10;;;;;;4937988;28;20101;-72
2022/07/15 03:04:09;;;;;;;3.88;0.88;;;14.50;55.30;;;;;;4949076;28;20031;-72
2022/07/15 03:06:35;;;;;;;1.65;0.70;;;14.50;55.30;;;;;;4942933;28;20035;-70
2022/07/15 03:09:01;;;;;;;4.13;0.77;;;14.50;55.30;;;;;;4930060;28;20508;-71
2022/07/15 03:11:26;;;;;;;1.25;0.60;;;14.40;55.40;;;;;;4940403;28;20039;-73
2022/07/15 03:13:52;;;;;;;2.95;0.88;;;14.40;55.60;;;;;;4961466;28;20068;-73
2022/07/15 03:16:17;;;;;;;1.02;0.90;;;14.30;55.60;;;;;;4965188;28;20126;-71
2022/07/15 03:18:43;;;;;;;2.13;0.63;;;14.30;55.80;;;;;;4961453;28;20070;-72
2022/07/15 03:21:09;;;;;;;1.85;0.82;;;14.30;55.90;;;;;;4926124;28;20129;-71
2022/07/15 03:23:35;;;;;;;3.28;0.85;;;14.30;56.00;;;;;;4946185;28;20051;-72
2022/07/15 03:26:01;;;;;;;1.15;0.70;;;14.20;56.20;;;;;;4966104;28;20031;-72
2022/07/15 03:28:26;;;;;;;3.45;1.15;;;14.20;56.20;;;;;;4965116;28;20636;-71
2022/07/15 03:30:52;;;;;;;2.90;0.85;;;14.10;56.30;;;;;;4934906;28;20038;-71
2022/07/15 03:33:17;;;;;;;2.80;0.80;;;14.10;56.30;;;;;;4967048;28;20022;-71
2022/07/15 03:35:43;;;;;;;2.35;0.80;;;14.00;56.50;;;;;;4952753;28;20045;-71
2022/07/15 03:38:09;;;;;;;0.82;0.60;;;14.00;56.50;;;;;;4935130;28;20039;-71
2022/07/15 03:40:34;;;;;;;0.95;0.60;;;14.00;56.50;;;;;;4949417;28;20081;-72
2022/07/15 03:43:00;;;;;;;4.57;0.70;;;13.90;56.70;;;;;;4954927;28;20042;-71
2022/07/15 03:45:25;;;;;;;1.40;0.70;;;14.00;56.80;;;;;;4950663;28;20034;-71
2022/07/15 03:47:51;;;;;;;2.35;0.85;;;13.90;56.80;;;;;;4951811;28;20046;-71
2022/07/15 03:50:17;;;;;;;1.42;1.15;;;13.90;56.90;;;;;;4965668;28;20037;-71
2022/07/15 03:52:42;;;;;;;2.75;0.85;;;13.80;57.00;;;;;;4935635;28;20118;-70
2022/07/15 03:55:09;;;;;;;3.22;1.00;;;13.80;57.00;;;;;;4964032;28;20090;-71
2022/07/15 03:57:35;;;;;;;4.15;1.35;;;13.80;57.20;;;;;;4955867;28;20047;-71
2022/07/15 04:00:01;;;;;;;3.55;0.60;;;13.70;57.10;;;;;;4916893;28;20039;-73
2022/07/15 04:02:26;;;;;;;1.13;0.70;;;13.70;57.30;;;;;;4939952;28;20089;-72
2022/07/15 04:04:52;;;;;;;4.40;1.15;;;13.70;57.50;;;;;;4950517;28;20972;-73
2022/07/15 04:07:17;;;;;;;1.85;0.80;;;13.70;58.30;;;;;;4943152;28;20045;-71
2022/07/15 04:09:43;;;;;;;1.52;0.95;;;13.60;57.70;;;;;;4944266;28;20095;-70
2022/07/15 04:12:10;;;;;;;1.85;0.70;;;13.60;57.80;;;;;;4920082;28;20129;-72
2022/07/15 04:14:35;;;;;;;1.85;0.70;;;13.60;57.80;;;;;;4945733;28;20046;-71
2022/07/15 04:17:01;;;;;;;3.40;0.90;;;13.60;58.00;;;;;;4938628;28;20042;-71
2022/07/15 04:19:26;;;;;;;2.92;0.95;;;13.60;58.00;;;;;;4965906;28;20307;-73
2022/07/15 04:21:52;;;;;;;2.85;1.15;;;13.60;58.30;;;;;;4960715;28;20125;-71
2022/07/15 04:24:17;;;;;;;1.25;0.80;;;13.60;58.40;;;;;;4958004;28;20039;-72
2022/07/15 04:26:43;;;;;;;1.58;0.90;;;13.60;58.60;;;;;;4938305;28;20031;-70
2022/07/15 04:29:09;;;;;;;1.17;1.08;;;13.50;58.60;;;;;;4936114;28;20038;-71
2022/07/15 04:31:34;;;;;;;1.33;0.95;;;13.60;58.60;;;;;;4954476;28;20031;-71
2022/07/15 04:34:00;;;;;;;3.65;1.05;;;13.60;58.60;;;;;;4947144;28;20081;-70
2022/07/15 04:36:25;;;;;;;1.70;1.20;;;13.60;58.80;;;;;;4960238;28;20064;-73
2022/07/15 04:38:51;;;;;;;1.73;1.02;;;13.60;58.80;;;;;;4953734;28;20119;-71
2022/07/15 04:41:16;;;;;;;1.85;0.85;;;13.60;59.00;;;;;;4960302;28;20729;-70
2022/07/15 04:43:42;;;;;;;4.72;0.93;;;13.60;59.00;;;;;;4944551;28;20030;-72
2022/07/15 04:46:07;;;;;;;4.22;1.00;;;13.60;59.00;;;;;;4930167;28;20868;-70
2022/07/15 04:51:17;;;;;;;3.20;0.82;;;13.60;59.20;;;;;;4958829;28;20046;-72
2022/07/15 04:53:42;;;;;;;1.65;0.80;;;13.60;59.20;;;;;;4930863;28;20129;-70
2022/07/15 04:56:08;;;;;;;1.88;1.02;;;13.70;59.30;;;;;;4932737;28;20042;-70
2022/07/15 04:58:33;;;;;;;1.85;1.27;;;13.70;59.30;;;;;;4965304;28;20049;-70
2022/07/15 05:00:59;;;;;;;5.05;1.50;;;13.70;59.30;;;;;;4972706;28;20042;-70
2022/07/15 05:03:24;;;;;;;2.28;1.10;;;13.80;59.70;;;;;;4954293;28;20064;-72
2022/07/15 05:05:50;;;;;;;3.53;1.00;;;13.80;59.60;;;;;;4941250;28;20053;-71
2022/07/15 05:08:15;;;;;;;4.88;1.00;;;13.80;59.70;;;;;;4943265;28;20047;-72
2022/07/15 05:10:41;;;;;;;1.73;1.25;;;13.90;59.80;;;;;;4936012;28;20071;-70
2022/07/15 05:13:07;;;;;;;1.83;1.10;;;13.90;59.70;;;;;;4926820;28;20043;-71
2022/07/15 05:15:34;;;;;;;2.55;1.10;;;14.00;59.80;;;;;;4940233;28;20042;-73
2022/07/15 05:17:59;;;;;;;1.58;1.10;;;14.00;59.80;;;;;;4923183;28;20046;-71
2022/07/15 05:20:26;;;;;;;3.75;1.00;;;14.10;59.90;;;;;;4930873;28;20518;-73
2022/07/15 05:22:51;;;;;;;4.00;1.23;;;14.10;60.00;;;;;;4949177;28;20042;-71
2022/07/15 05:25:17;;;;;;;2.30;1.50;;;14.20;60.20;;;;;;4938742;28;20046;-71
2022/07/15 05:27:44;;;;;;;3.33;1.00;;;14.20;60.30;;;;;;4917081;28;20039;-71
2022/07/15 05:30:12;;;;;;;6.28;1.30;;;14.30;60.30;;;;;;4935992;28;20046;-71
2022/07/15 05:32:38;;;;;;;4.35;1.10;;;14.40;60.40;;;;;;4971143;28;20038;-69
2022/07/15 05:35:04;;;;;;;3.42;1.30;;;14.40;60.40;;;;;;4954478;28;20039;-71
2022/07/15 05:37:29;;;;;;;3.15;1.10;;;14.50;60.30;;;;;;4916438;28;20043;-71
2022/07/15 05:39:55;;;;;;;1.90;1.10;;;14.50;60.40;;;;;;4935348;28;20121;-70
2022/07/15 05:42:21;;;;;;;4.07;1.00;;;14.60;60.40;;;;;;4968950;28;20634;-72
2022/07/15 05:44:47;;;;;;;2.22;1.10;;;14.70;60.30;;;;;;4932684;28;20038;-70
2022/07/15 05:47:12;;;;;;;1.70;0.98;;;14.70;60.20;;;;;;4937222;28;20035;-70
2022/07/15 05:49:38;;;;;;;3.88;1.20;;;14.80;60.20;;;;;;4935562;28;20123;-71
2022/07/15 05:52:03;;;;;;;2.15;0.93;;;14.80;60.10;;;;;;4948810;28;20066;-70
2022/07/15 05:54:29;;;;;;;2.05;0.90;;;14.90;60.10;;;;;;4956854;28;20126;-70
2022/07/15 05:56:55;;;;;;;5.40;1.30;;;15.00;60.00;;;;;;4932382;28;20054;-71
2022/07/15 05:59:20;;;;;;;3.95;1.23;;;15.10;60.00;;;;;;4955066;28;20050;-71
2022/07/15 06:01:46;;;;;;;2.85;1.17;;;15.20;60.00;;;;;;4954257;28;20078;-70
2022/07/15 06:04:13;;;;;;;2.95;1.08;;;15.20;59.90;;;;;;4964900;28;20039;-70
2022/07/15 06:06:39;;;;;;;4.13;1.30;;;15.30;59.90;;;;;;4946056;28;20043;-70
2022/07/15 06:09:04;;;;;;;2.47;0.80;;;15.40;59.80;;;;;;4941232;28;20031;-70
2022/07/15 06:11:30;;;;;;;4.10;1.10;;;15.40;59.60;;;;;;4933053;28;20117;-73
2022/07/15 06:13:55;;;;;;;2.38;1.02;;;15.50;59.50;;;;;;4956555;28;20118;-70
2022/07/15 06:16:21;;;;;;;7.30;1.30;;;15.60;59.50;;;;;;4954770;28;20403;-71
2022/07/15 06:18:46;;;;;;;3.25;1.00;;;15.70;59.30;;;;;;4951675;28;20122;-71
2022/07/15 06:21:12;;;;;;;3.15;1.27;;;15.80;59.10;;;;;;4939017;28;20496;-70
2022/07/15 06:23:37;;;;;;;6.03;1.33;;;15.90;59.20;;;;;;4961653;28;20043;-70
2022/07/15 06:26:03;;;;;;;6.38;1.25;;;16.00;59.00;;;;;;4938214;28;20043;-69
2022/07/15 06:28:29;;;;;;;2.85;1.00;;;16.10;58.80;;;;;;4918840;28;20191;-71
2022/07/15 06:30:54;;;;;;;4.05;1.17;;;16.30;58.70;;;;;;4944777;28;20046;-69
2022/07/15 06:33:20;;;;;;;9.68;1.13;;;16.50;58.60;;;;;;4937829;28;20046;-69
2022/07/15 06:35:45;;;;;;;3.03;1.20;;;16.70;58.40;;;;;;4943973;28;20039;-70
2022/07/15 06:38:11;;;;;;;3.05;0.70;;;16.90;58.30;;;;;;4970016;28;20711;-69
2022/07/15 06:40:36;;;;;;;3.70;0.93;;;17.00;58.00;;;;;;4959607;28;20032;-69
2022/07/15 06:43:02;;;;;;;7.28;1.10;;;17.20;57.80;;;;;;4967945;28;20039;-70
2022/07/15 06:45:27;;;;;;;3.78;0.98;;;17.30;57.50;;;;;;4944244;28;20142;-69
2022/07/15 06:47:53;;;;;;;5.28;0.93;;;17.30;57.30;;;;;;4947268;28;20548;-70
2022/07/15 06:50:22;;;;;;;3.83;0.80;;;17.40;57.20;;;;;;4933871;28;20040;-70
2022/07/15 06:52:47;;;;;;;5.03;1.10;;;17.50;57.00;;;;;;4968404;28;20082;-71
2022/07/15 06:55:13;;;;;;;5.45;0.90;;;17.60;56.90;;;;;;4969686;28;20554;-71
2022/07/15 06:57:39;;;;;;;2.30;0.80;;;17.70;56.80;;;;;;4940002;28;20046;-70
2022/07/15 07:00:07;;;;;;;2.75;0.80;;;17.80;56.60;;;;;;4922776;28;20054;-69
2022/07/15 07:02:33;;;;;;;2.78;0.63;;;17.80;56.40;;;;;;4946385;28;20137;-70
2022/07/15 07:04:59;;;;;;;2.47;0.70;;;17.90;56.10;;;;;;4968391;28;20126;-69
2022/07/15 07:07:25;;;;;;;2.92;0.75;;;18.00;56.00;;;;;;4939195;28;20031;-70
2022/07/15 07:09:51;;;;;;;1.92;1.00;;;18.10;55.90;;;;;;4948697;28;20045;-70
2022/07/15 07:12:17;;;;;;;5.35;0.80;;;18.20;55.70;;;;;;4961418;28;20050;-69
2022/07/15 07:14:43;;;;;;;3.15;0.90;;;18.30;55.50;;;;;;4924444;28;20116;-70
2022/07/15 07:17:08;;;;;;;1.25;0.70;;;18.40;55.20;;;;;;4968187;28;20870;-69
2022/07/15 07:19:34;;;;;;;1.23;0.63;;;18.50;55.20;;;;;;4956310;28;20046;-72
2022/07/15 07:21:59;;;;;;;3.33;0.80;;;18.60;55.00;;;;;;4952257;28;20077;-71
2022/07/15 07:24:25;;;;;;;2.70;0.82;;;18.70;54.80;;;;;;4945600;28;20061;-72
2022/07/15 07:26:50;;;;;;;4.95;0.80;;;18.70;54.80;;;;;;4930664;28;20035;-70
2022/07/15 07:29:22;;;;;;;1.40;0.68;;;18.80;54.40;;;;;;4948270;28;20687;-74
2022/07/15 07:31:50;;;;;;;3.83;0.85;;;18.90;54.30;;;;;;4960208;28;20114;-71
2022/07/15 07:34:17;;;;;;;2.97;0.82;;;19.00;54.20;;;;;;4961907;28;20697;-70
2022/07/15 07:36:43;;;;;;;1.73;0.77;;;19.00;54.00;;;;;;4946938;28;20054;-72
2022/07/15 07:39:09;;;;;;;3.65;0.73;;;19.10;53.90;;;;;;4942321;28;20507;-71
2022/07/15 07:41:34;;;;;;;2.53;0.70;;;19.20;53.70;;;;;;4955993;28;20050;-71
2022/07/15 07:44:00;;;;;;;4.35;1.38;;;19.30;53.60;;;;;;4964987;28;20144;-71
2022/07/15 07:46:25;;;;;;;0.73;0.65;;;19.40;53.40;;;;;;4947647;28;20046;-71
2022/07/15 07:48:51;;;;;;;4.22;0.70;;;19.50;53.20;;;;;;4938127;28;20042;-72
2022/07/15 07:51:17;;;;;;;5.40;0.73;;;19.60;53.10;;;;;;4946744;28;20042;-71
2022/07/15 07:53:42;;;;;;;5.43;0.75;;;19.70;52.80;;;;;;4965836;28;20082;-70
2022/07/15 07:56:08;;;;;;;5.18;0.68;;;19.90;52.70;;;;;;4961646;28;21098;-71
2022/07/15 07:58:34;;;;;;;2.58;0.70;;;20.00;52.50;;;;;;4951396;28;20504;-71
2022/07/15 08:00:59;;;;;;;1.77;0.75;;;20.10;52.30;;;;;;4971400;28;20035;-71
2022/07/15 08:03:27;;;;;;;1.30;0.65;;;20.20;52.10;;;;;;4963297;28;20038;-71
2022/07/15 08:05:53;;;;;;;3.08;1.00;;;20.30;51.90;;;;;;4931864;28;20607;-72
2022/07/15 08:08:22;;;;;;;3.85;0.60;;;20.40;51.70;;;;;;4929089;28;20266;-71
2022/07/15 08:10:49;;;;;;;3.85;0.85;;;20.50;51.50;;;;;;4930728;28;20038;-71
2022/07/15 08:13:16;;;;;;;3.15;0.90;;;20.70;51.40;;;;;;4951075;28;20058;-70
2022/07/15 08:15:42;;;;;;;1.75;0.60;;;20.80;51.20;;;;;;4948568;28;20126;-72
2022/07/15 08:18:07;;;;;;;4.18;0.88;;;20.90;51.10;;;;;;4921838;28;20697;-70
2022/07/15 08:20:33;;;;;;;6.45;0.95;;;21.10;50.80;;;;;;4956369;28;20692;-70
2022/07/15 08:22:59;;;;;;;5.63;0.60;;;21.20;50.40;;;;;;4937260;28;20467;-71
2022/07/15 08:25:30;;;;;;;5.32;0.93;;;21.40;50.30;;;;;;4936183;28;20057;-71
2022/07/15 08:27:56;;;;;;;1.45;0.60;;;21.50;50.10;;;;;;4946142;28;20034;-70
2022/07/15 08:30:22;;;;;;;0.88;0.50;;;21.70;49.90;;;;;;4938027;28;20039;-70
2022/07/15 08:32:47;;;;;;;2.22;0.70;;;21.90;49.60;;;;;;4970346;28;20034;-70
2022/07/15 08:35:13;;;;;;;6.10;0.70;;;22.00;49.30;;;;;;4940280;28;20255;-70
2022/07/15 08:37:39;;;;;;;4.57;0.52;;;22.10;49.00;;;;;;4962717;28;20039;-71
2022/07/15 08:40:07;;;;;;;3.08;0.80;;;22.20;48.80;;;;;;4945689;28;21478;-70
2022/07/15 08:42:33;;;;;;;0.85;0.45;;;22.40;48.60;;;;;;4957010;28;20038;-71
2022/07/15 08:44:58;;;;;;;1.23;0.88;;;22.50;48.30;;;;;;4935500;28;20043;-70
2022/07/15 08:47:24;;;;;;;2.05;0.70;;;22.70;48.10;;;;;;4970906;28;20049;-72
2022/07/15 08:49:54;;;;;;;6.38;0.73;;;22.90;47.80;;;;;;4953588;28;20041;-72
2022/07/15 08:52:19;;;;;;;2.08;0.60;;;23.10;47.50;;;;;;4940541;28;20432;-72
2022/07/15 08:54:45;;;;;;;2.97;0.60;;;23.30;47.10;;;;;;4965700;28;20762;-71
2022/07/15 08:57:10;;;;;;;1.83;0.60;;;23.50;46.80;;;;;;4948791;28;20403;-70
2022/07/15 08:59:36;;;;;;;2.90;1.08;;;23.60;46.40;;;;;;4930961;28;20039;-74
2022/07/15 09:02:02;;;;;;;1.40;0.52;;;23.80;46.00;;;;;;4991912;28;20051;-74
2022/07/15 09:04:27;;;;;;;1.90;0.60;;;24.00;45.80;;;;;;4949785;28;20030;-74
2022/07/15 09:06:53;;;;;;;3.20;0.63;;;24.20;45.50;;;;;;4942173;28;20041;-74
2022/07/15 09:09:32;;;;;;;1.55;0.50;;;24.30;45.20;;;;;;4926023;28;20666;-71
2022/07/15 09:12:08;;;;;;;1.95;0.70;;;24.30;44.70;;;;;;4920725;28;20173;-74
2022/07/15 09:14:35;;;;;;;2.88;1.00;;;24.50;44.80;;;;;;4966352;28;20040;-75
2022/07/15 09:17:10;;;;;;;1.23;0.50;;;24.70;44.80;;;;;;4922489;28;20057;-72
2022/07/15 09:19:58;;;;;;;1.40;0.57;;;24.90;44.40;;;;;;4974343;28;20029;-72
2022/07/15 09:22:24;;;;;;;1.52;0.80;;;25.20;43.80;;;;;;4971209;28;20058;-73
2022/07/15 09:24:51;;;;;;;1.95;0.80;;;25.30;43.90;;;;;;4967261;28;20049;-72
2022/07/15 09:27:30;;;;;;;3.67;0.80;;;25.40;43.50;;;;;;4922163;28;20058;-73
2022/07/15 09:38:11;;;;;;;2.65;0.98;;;26.00;42.70;;;;;;4943086;28;20522;-73
2022/07/15 09:40:49;;;;;;;2.88;0.90;;;26.20;42.40;;;;;;4942546;28;20036;-72
2022/07/15 09:43:14;;;;;;;2.95;0.90;;;26.30;41.50;;;;;;4951735;28;20046;-73
2022/07/15 09:45:40;;;;;;;2.53;0.90;;;26.40;41.70;;;;;;4941653;28;20042;-72
2022/07/15 09:48:16;;;;;;;2.35;0.77;;;26.40;41.60;;;;;;4927460;28;20050;-72
2022/07/15 09:50:45;;;;;;;3.30;0.90;;;26.50;41.30;;;;;;4940712;28;20126;-73
2022/07/15 09:53:11;;;;;;;4.13;0.70;;;26.60;41.20;;;;;;4950976;28;20030;-73
2022/07/15 09:55:46;;;;;;;1.90;0.90;;;26.70;40.90;;;;;;4954294;28;20523;-73
2022/07/15 09:58:11;;;;;;;3.75;0.80;;;26.70;40.30;;;;;;4954606;28;20058;-71
2022/07/15 10:00:37;;;;;;;6.10;1.42;;;26.70;40.50;;;;;;4937669;28;20046;-72
2022/07/15 10:03:03;;;;;;;5.25;1.58;;;26.70;40.40;;;;;;4961940;28;20039;-72
2022/07/15 10:05:30;;;;;;;1.60;1.00;;;26.70;40.20;;;;;;4959126;28;20496;-71
2022/07/15 10:07:57;;;;;;;2.08;0.90;;;26.70;40.00;;;;;;4937608;28;20043;-72
2022/07/15 10:10:23;;;;;;;3.75;1.02;;;26.70;39.90;;;;;;4946799;28;20035;-73
2022/07/15 10:13:12;;;;;;;0.80;0.77;;;26.60;39.80;;;;;;4941701;28;20520;-72
2022/07/15 10:15:51;;;;;;;3.97;1.05;;;26.70;39.80;;;;;;4970714;28;20597;-72
2022/07/15 10:18:20;;;;;;;2.47;0.80;;;26.80;39.60;;;;;;4982909;28;20037;-72
2022/07/15 10:21:08;;;;;;;1.58;0.80;;;26.90;39.70;;;;;;4958290;28;20042;-73
2022/07/15 10:23:53;;;;;;;2.15;0.70;;;27.10;39.50;;;;;;4934279;28;20043;-72
2022/07/15 10:26:44;;;;;;;1.75;1.00;;;27.20;39.50;;;;;;4938513;28;20106;-72
2022/07/15 10:29:12;;;;;;;4.15;0.80;;;27.40;39.00;;;;;;4951703;28;20597;-73
2022/07/15 10:31:38;;;;;;;1.15;0.70;;;27.50;39.20;;;;;;4943529;28;20130;-72
2022/07/15 10:34:10;;;;;;;3.42;1.13;;;27.50;39.00;;;;;;4929164;28;20070;-72
2022/07/15 10:36:49;;;;;;;2.35;1.33;;;27.40;38.60;;;;;;4928250;28;20082;-72
2022/07/15 10:39:21;;;;;;;2.13;0.70;;;27.40;38.40;;;;;;4932184;28;20032;-72
2022/07/15 10:41:56;;;;;;;1.90;1.10;;;27.40;38.80;;;;;;4938098;28;20106;-72
2022/07/15 10:44:22;;;;;;;3.60;0.75;;;27.30;38.50;;;;;;4938094;28;20098;-72
2022/07/15 10:47:16;;;;;;;2.30;1.13;;;27.30;38.80;;;;;;4928285;28;20463;-71
2022/07/15 10:49:44;;;;;;;3.05;0.90;;;27.20;38.30;;;;;;4966723;28;20049;-72
2022/07/15 10:52:20;;;;;;;2.47;1.10;;;27.20;38.70;;;;;;4940404;28;20034;-71
2022/07/15 10:54:54;;;;;;;3.30;1.00;;;27.10;38.30;;;;;;4937382;28;20050;-71
2022/07/15 10:57:21;;;;;;;3.63;0.85;;;27.10;38.50;;;;;;4968992;28;21675;-72
2022/07/15 10:59:48;;;;;;;1.45;0.80;;;27.10;38.50;;;;;;4954236;28;20038;-71
2022/07/15 11:02:16;;;;;;;1.83;1.10;;;27.10;38.50;;;;;;4948112;28;20047;-72
2022/07/15 11:04:42;;;;;;;3.47;0.90;;;27.10;38.50;;;;;;4958489;28;20069;-72
2022/07/15 11:07:09;;;;;;;3.40;0.90;;;27.20;38.40;;;;;;4917651;28;20027;-72
2022/07/15 11:09:53;;;;;;;3.00;0.98;;;27.20;38.40;;;;;;4960444;28;20456;-72
2022/07/15 11:12:29;;;;;;;1.88;0.88;;;27.30;38.40;;;;;;4957368;28;20038;-72
2022/07/15 11:15:16;;;;;;;3.35;0.90;;;27.50;38.60;;;;;;4948773;28;20049;-74
2022/07/15 11:17:51;;;;;;;5.63;0.95;;;27.60;38.20;;;;;;4940111;28;20039;-73
2022/07/15 11:20:21;;;;;;;2.97;0.88;;;27.80;38.40;;;;;;4949408;28;20506;-72
2022/07/15 11:22:49;;;;;;;3.47;0.93;;;28.00;38.30;;;;;;4887991;28;20038;-72
2022/07/15 11:25:21;;;;;;;4.15;1.10;;;28.10;38.10;;;;;;4939622;28;20045;-71
2022/07/15 11:28:05;;;;;;;4.45;1.13;;;28.30;37.80;;;;;;4939817;28;20625;-73
2022/07/15 11:30:37;;;;;;;4.88;1.42;;;28.40;37.60;;;;;;4948193;28;20039;-72
2022/07/15 11:33:03;;;;;;;1.02;0.93;;;28.50;37.70;;;;;;4953066;28;20119;-72
2022/07/15 11:35:42;;;;;;;3.80;1.02;;;28.50;37.40;;;;;;4950421;28;20039;-72
2022/07/15 11:38:07;;;;;;;3.35;1.08;;;28.50;37.20;;;;;;4939293;28;20035;-71
2022/07/15 11:46:05;;;;;;;2.15;1.20;;;28.30;37.00;;;;;;4958677;28;20069;-72
2022/07/15 11:48:37;;;;;;;4.57;1.55;;;28.30;37.40;;;;;;4947665;28;20039;-71
2022/07/15 11:51:06;;;;;;;5.80;1.38;;;28.30;36.90;;;;;;4909878;28;20065;-72
2022/07/15 11:53:38;;;;;;;2.08;1.20;;;28.30;36.90;;;;;;4945032;28;20035;-72
2022/07/15 11:56:05;;;;;;;2.15;1.25;;;28.50;36.80;;;;;;4929662;28;20038;-72
2022/07/15 11:58:42;;;;;;;4.60;1.08;;;28.60;36.70;;;;;;4964183;28;20065;-72
2022/07/15 12:01:19;;;;;;;2.08;1.10;;;28.70;36.30;;;;;;4960424;28;20037;-73
2022/07/15 12:03:46;;;;;;;3.88;1.23;;;28.80;36.20;;;;;;4974632;28;20052;-73
2022/07/15 12:06:23;;;;;;;2.17;1.33;;;28.90;36.40;;;;;;4964322;28;20041;-72
2022/07/15 12:08:55;;;;;;;3.58;1.42;;;28.90;36.70;;;;;;4956118;28;20085;-72
2022/07/15 12:11:31;;;;;;;2.03;1.33;;;29.00;36.10;;;;;;4959479;28;20042;-72
2022/07/15 12:13:59;;;;;;;3.00;1.25;;;29.00;36.00;;;;;;4941138;28;20034;-73
2022/07/15 12:16:34;;;;;;;1.05;0.98;;;29.10;36.00;;;;;;4955394;28;20072;-74
2022/07/15 12:19:04;;;;;;;3.08;1.02;;;29.30;35.70;;;;;;4933354;28;20046;-72
2022/07/15 12:21:30;;;;;;;1.70;1.30;;;29.40;35.60;;;;;;4937464;28;20049;-72
2022/07/15 12:24:09;;;;;;;2.20;1.20;;;29.50;35.50;;;;;;4947747;28;20047;-74
2022/07/15 12:26:48;;;;;;;3.63;1.20;;;29.50;35.20;;;;;;4927925;28;20042;-73
2022/07/15 12:29:15;;;;;;;2.90;1.50;;;29.40;35.10;;;;;;4933320;28;20070;-72
2022/07/15 12:31:52;;;;;;;2.78;1.48;;;29.30;35.20;;;;;;4914741;28;20070;-72
2022/07/15 12:34:21;;;;;;;3.10;1.40;;;29.30;35.00;;;;;;4943394;28;20516;-72
2022/07/15 12:36:56;;;;;;;3.17;1.27;;;29.30;35.00;;;;;;4950960;28;20035;-72
2022/07/15 12:39:22;;;;;;;3.42;1.15;;;29.30;34.80;;;;;;4938979;28;20118;-72
2022/07/15 12:41:59;;;;;;;3.40;1.33;;;29.30;34.90;;;;;;4937499;28;20134;-72
2022/07/15 12:44:27;;;;;;;3.67;1.55;;;29.40;34.50;;;;;;4946567;28;20045;-72
2022/07/15 12:47:00;;;;;;;3.33;1.33;;;29.60;34.80;;;;;;4908441;28;20433;-72
2022/07/15 12:49:47;;;;;;;2.67;1.20;;;29.80;34.60;;;;;;4965206;28;20077;-72
2022/07/15 12:52:13;;;;;;;1.35;1.10;;;30.10;33.70;;;;;;4937039;28;20027;-73
2022/07/15 12:54:38;;;;;;;3.13;1.27;;;30.20;34.00;;;;;;4953721;28;20041;-73
2022/07/15 12:57:17;;;;;;;1.48;1.38;;;30.30;33.70;;;;;;4960401;28;20097;-73
2022/07/15 13:00:03;;;;;;;1.77;1.42;;;30.40;33.70;;;;;;4951208;28;20026;-73
2022/07/15 13:02:31;;;;;;;4.00;1.38;;;30.60;33.20;;;;;;4946818;28;20192;-74
2022/07/15 13:05:02;;;;;;;1.30;1.20;;;30.90;33.50;;;;;;4947776;28;20093;-74
2022/07/15 13:07:28;;;;;;;2.35;1.40;;;31.10;33.10;;;;;;4940030;28;20033;-73
2022/07/15 13:09:54;;;;;;;3.63;1.40;;;31.30;33.00;;;;;;4956378;28;20034;-73